Time;durP1;ratioP1;P1;durP2;ratioP2;P2;SDS_P1;SDS_P2;PMS_P1;PMS_P2;Temp;Humidity;BMP_temperature;BMP_pressure;BME280_temperature;BME280_humidity;BME280_pressure;Samples;Min_cycle;Max_cycle;Signal;HPM_P1;HPM_P2
2021/07/02 00:00:56;;;;;;;36.05;19.77;;;15.80;99.90;;;;;;6314730;22;20018;-82
2021/07/02 00:03:22;;;;;;;46.95;21.50;;;15.80;99.90;;;;;;6314992;22;20377;-83
2021/07/02 00:05:48;;;;;;;47.13;20.60;;;15.70;99.90;;;;;;6335212;22;20035;-82
2021/07/02 00:08:14;;;;;;;40.72;20.33;;;15.80;99.90;;;;;;6345472;22;20040;-83
2021/07/02 00:10:39;;;;;;;39.17;20.13;;;15.80;99.90;;;;;;6335653;22;20042;-82
2021/07/02 00:13:05;;;;;;;38.92;20.45;;;15.70;99.90;;;;;;6318162;22;20018;-83
2021/07/02 00:15:31;;;;;;;40.33;20.45;;;15.70;99.90;;;;;;6281257;22;20093;-83
2021/07/02 00:17:57;;;;;;;37.10;19.83;;;15.60;99.90;;;;;;6316853;22;20015;-82
2021/07/02 00:20:22;;;;;;;43.08;20.52;;;15.60;99.90;;;;;;6309578;22;20064;-82
2021/07/02 00:22:48;;;;;;;40.88;20.05;;;15.60;99.90;;;;;;6282114;22;20022;-82
2021/07/02 00:25:14;;;;;;;41.40;20.58;;;15.60;99.90;;;;;;6345881;22;20019;-83
2021/07/02 00:27:40;;;;;;;45.35;20.92;;;15.60;99.90;;;;;;6309570;22;20042;-83
2021/07/02 00:30:06;;;;;;;50.20;21.02;;;15.60;99.90;;;;;;6318351;22;20017;-83
2021/07/02 00:32:32;;;;;;;46.40;21.52;;;15.60;99.90;;;;;;6281673;22;20071;-83
2021/07/02 00:34:59;;;;;;;50.20;21.70;;;15.60;99.90;;;;;;6309437;22;20481;-83
2021/07/02 00:37:25;;;;;;;46.38;21.40;;;15.60;99.90;;;;;;6320263;22;20050;-83
2021/07/02 00:39:51;;;;;;;53.88;22.17;;;15.60;99.90;;;;;;6308827;22;20060;-82
2021/07/02 00:42:17;;;;;;;45.30;21.58;;;15.60;99.90;;;;;;6307769;22;20097;-82
2021/07/02 00:44:45;;;;;;;48.78;21.02;;;15.50;99.90;;;;;;6319232;22;20085;-83
2021/07/02 00:47:12;;;;;;;52.63;22.05;;;15.50;99.90;;;;;;6337801;22;20014;-83
2021/07/02 00:49:39;;;;;;;49.65;21.85;;;15.60;99.90;;;;;;6308971;22;20010;-84
2021/07/02 00:52:06;;;;;;;54.47;21.70;;;15.50;99.90;;;;;;6318241;22;20339;-83
2021/07/02 00:54:34;;;;;;;49.67;21.25;;;15.50;99.90;;;;;;6307505;22;20022;-82
2021/07/02 00:57:01;;;;;;;50.88;20.52;;;15.50;99.90;;;;;;6281893;22;20006;-84
2021/07/02 00:59:26;;;;;;;58.20;22.23;;;15.40;99.90;;;;;;6283430;22;20431;-84
2021/07/02 01:01:53;;;;;;;50.50;21.08;;;15.50;99.90;;;;;;6335476;22;20072;-82
2021/07/02 01:04:19;;;;;;;51.35;21.08;;;15.50;99.90;;;;;;6340208;22;20045;-82
2021/07/02 01:06:46;;;;;;;52.63;21.02;;;15.50;99.90;;;;;;6282287;22;20046;-83
2021/07/02 01:09:12;;;;;;;52.90;21.95;;;15.40;99.90;;;;;;6284194;22;20050;-82
2021/07/02 01:11:38;;;;;;;61.22;21.75;;;15.50;99.90;;;;;;6283489;22;20172;-83
2021/07/02 01:14:05;;;;;;;54.00;20.48;;;15.40;99.90;;;;;;6336087;22;20048;-83
2021/07/02 01:16:30;;;;;;;54.90;20.88;;;15.40;99.90;;;;;;6308860;22;20014;-84
2021/07/02 01:18:57;;;;;;;61.13;21.88;;;15.40;99.90;;;;;;6348204;22;20014;-82
2021/07/02 01:21:23;;;;;;;52.35;19.85;;;15.40;99.90;;;;;;6318952;22;20475;-83
2021/07/02 01:23:49;;;;;;;56.65;20.00;;;15.40;99.90;;;;;;6342433;22;20015;-83
2021/07/02 01:26:16;;;;;;;58.47;20.33;;;15.40;99.90;;;;;;6320376;22;20017;-82
2021/07/02 01:28:43;;;;;;;49.88;19.95;;;15.40;99.90;;;;;;6320495;22;20015;-82
2021/07/02 01:31:12;;;;;;;56.95;20.10;;;15.40;99.90;;;;;;6307318;22;20438;-83
2021/07/02 01:33:37;;;;;;;52.65;19.23;;;15.40;99.90;;;;;;6281123;22;20059;-83
2021/07/02 01:36:25;;;;;;;58.47;19.98;;;15.40;99.90;;;;;;6318981;22;20042;-83
2021/07/02 01:38:52;;;;;;;55.00;19.30;;;15.40;99.90;;;;;;6304332;22;20018;-83
2021/07/02 01:41:18;;;;;;;47.45;19.33;;;15.40;99.90;;;;;;6336167;22;20019;-82
2021/07/02 01:43:44;;;;;;;52.60;18.17;;;15.40;99.90;;;;;;6335021;22;20272;-83
2021/07/02 01:46:10;;;;;;;49.25;18.15;;;15.40;99.90;;;;;;6308076;22;20015;-83
2021/07/02 01:48:36;;;;;;;50.40;18.25;;;15.40;99.90;;;;;;6345269;22;20090;-83
2021/07/02 01:51:02;;;;;;;49.10;18.55;;;15.40;99.90;;;;;;6281907;22;20063;-83
2021/07/02 01:53:28;;;;;;;48.58;17.70;;;15.40;99.90;;;;;;6306845;22;20015;-83
2021/07/02 01:55:54;;;;;;;45.17;17.65;;;15.40;99.90;;;;;;6307742;22;20014;-83
2021/07/02 01:58:23;;;;;;;56.85;17.85;;;15.40;99.90;;;;;;6284416;22;20017;-81
2021/07/02 02:00:49;;;;;;;46.38;17.40;;;15.40;99.90;;;;;;6317425;22;20085;-78
2021/07/02 02:03:15;;;;;;;47.13;17.60;;;15.40;99.90;;;;;;6317979;22;20072;-82
2021/07/02 02:05:41;;;;;;;42.92;17.15;;;15.40;99.90;;;;;;6347819;22;20011;-81
2021/07/02 02:08:08;;;;;;;49.60;17.38;;;15.40;99.90;;;;;;6284111;22;20015;-81
2021/07/02 02:10:34;;;;;;;43.47;16.67;;;15.30;99.90;;;;;;6319908;22;20011;-82
2021/07/02 02:13:00;;;;;;;48.65;16.33;;;15.40;99.90;;;;;;6337449;22;20106;-82
2021/07/02 02:15:26;;;;;;;39.30;15.65;;;15.40;99.90;;;;;;6310300;22;20442;-82
2021/07/02 02:17:51;;;;;;;31.52;14.27;;;15.40;99.90;;;;;;6337856;22;20486;-81
2021/07/02 02:20:18;;;;;;;32.47;14.10;;;15.40;99.90;;;;;;6337704;22;20034;-83
2021/07/02 02:22:46;;;;;;;36.25;13.77;;;15.40;99.90;;;;;;6319152;22;20010;-84
2021/07/02 02:25:12;;;;;;;36.83;13.13;;;15.30;99.90;;;;;;6348458;22;20295;-84
2021/07/02 02:27:38;;;;;;;30.98;13.75;;;15.30;99.90;;;;;;6319902;22;20007;-81
2021/07/02 02:30:09;;;;;;;29.35;12.40;;;15.30;99.90;;;;;;6309509;22;20011;-84
2021/07/02 02:32:36;;;;;;;29.65;14.13;;;15.40;99.90;;;;;;6309390;22;20007;-83
2021/07/02 02:35:03;;;;;;;25.65;12.82;;;15.30;99.90;;;;;;6320065;22;20022;-85
2021/07/02 02:37:28;;;;;;;26.05;12.15;;;15.30;99.90;;;;;;6319441;22;20025;-86
2021/07/02 02:39:54;;;;;;;26.08;12.50;;;15.30;99.90;;;;;;6309292;22;20014;-84
2021/07/02 02:42:20;;;;;;;24.95;12.55;;;15.30;99.90;;;;;;6336457;22;20019;-84
2021/07/02 02:44:46;;;;;;;28.50;12.32;;;15.30;99.90;;;;;;6347782;22;20085;-85
2021/07/02 02:47:12;;;;;;;25.75;12.18;;;15.30;99.90;;;;;;6337169;22;20018;-85
2021/07/02 02:49:38;;;;;;;32.78;12.80;;;15.30;99.90;;;;;;6320273;22;20018;-85
2021/07/02 02:52:04;;;;;;;28.80;11.95;;;15.30;99.90;;;;;;6309042;22;20041;-84
2021/07/02 02:54:30;;;;;;;32.97;12.98;;;15.20;99.90;;;;;;6309433;22;20080;-86
2021/07/02 02:57:04;;;;;;;29.98;12.18;;;15.10;99.90;;;;;;6319312;22;20011;-84
2021/07/02 02:59:32;;;;;;;30.77;13.20;;;15.30;99.90;;;;;;6320225;22;20085;-82
2021/07/02 03:01:58;;;;;;;28.67;12.57;;;15.30;99.90;;;;;;6309238;22;20014;-85
2021/07/02 03:04:24;;;;;;;23.08;11.95;;;15.30;99.90;;;;;;6340144;22;20013;-85
2021/07/02 03:06:50;;;;;;;26.23;13.05;;;15.30;99.90;;;;;;6309517;22;20010;-85
2021/07/02 03:09:16;;;;;;;24.35;12.15;;;15.30;99.90;;;;;;6309040;22;20046;-86
2021/07/02 03:11:46;;;;;;;24.20;12.90;;;15.30;99.90;;;;;;6347238;22;20101;-84
2021/07/02 03:14:12;;;;;;;24.50;12.93;;;15.40;99.90;;;;;;6283249;22;20417;-83
2021/07/02 03:16:37;;;;;;;25.25;12.32;;;15.40;99.90;;;;;;6342233;22;20015;-83
2021/07/02 03:19:04;;;;;;;24.63;12.73;;;15.30;99.90;;;;;;6336961;22;20010;-85
2021/07/02 03:21:30;;;;;;;27.15;12.73;;;15.40;99.90;;;;;;6347477;22;20072;-85
2021/07/02 03:23:56;;;;;;;28.20;13.25;;;15.30;99.90;;;;;;6340592;22;20114;-86
2021/07/02 03:26:22;;;;;;;28.80;12.80;;;15.40;99.90;;;;;;6309364;22;20480;-85
2021/07/02 03:28:48;;;;;;;29.65;13.70;;;15.30;99.90;;;;;;6337081;22;20011;-82
2021/07/02 03:31:14;;;;;;;27.00;12.65;;;15.30;99.90;;;;;;6308989;22;20475;-84
2021/07/02 03:33:39;;;;;;;30.83;12.57;;;15.30;99.90;;;;;;6319652;22;20427;-85
2021/07/02 03:36:05;;;;;;;27.60;12.70;;;15.30;99.90;;;;;;6347059;22;20324;-86
2021/07/02 03:38:31;;;;;;;29.70;13.50;;;15.30;99.90;;;;;;6347023;22;20011;-85
2021/07/02 03:40:57;;;;;;;33.35;13.13;;;15.30;99.90;;;;;;6309262;22;20381;-84
2021/07/02 03:43:23;;;;;;;28.15;12.93;;;15.30;99.90;;;;;;6320018;22;20032;-84
2021/07/02 03:45:49;;;;;;;32.38;13.57;;;15.30;99.90;;;;;;6308764;22;20098;-86
2021/07/02 03:48:15;;;;;;;33.13;13.70;;;15.30;99.90;;;;;;6336791;22;20018;-84
2021/07/02 03:50:41;;;;;;;35.00;14.07;;;15.40;99.90;;;;;;6283696;22;20037;-85
2021/07/02 03:53:07;;;;;;;31.88;13.45;;;15.30;99.90;;;;;;6336319;22;20010;-85
2021/07/02 03:55:33;;;;;;;28.52;12.07;;;15.40;99.90;;;;;;6349727;22;20042;-85
2021/07/02 03:57:59;;;;;;;26.98;12.95;;;15.30;99.90;;;;;;6338401;22;20011;-84
2021/07/02 04:00:24;;;;;;;31.90;13.98;;;15.40;99.90;;;;;;6322405;22;20021;-82
2021/07/02 04:02:51;;;;;;;26.88;12.90;;;15.40;99.90;;;;;;6338721;22;20442;-83
2021/07/02 04:05:17;;;;;;;30.67;13.85;;;15.40;99.90;;;;;;6285187;22;20021;-84
2021/07/02 04:07:43;;;;;;;29.15;14.18;;;15.40;99.90;;;;;;6310967;22;20073;-83
2021/07/02 04:10:09;;;;;;;28.10;13.27;;;15.40;99.90;;;;;;6310878;22;20019;-85
2021/07/02 04:12:35;;;;;;;33.05;13.32;;;15.50;99.90;;;;;;6321543;22;20011;-84
2021/07/02 04:15:00;;;;;;;28.67;12.82;;;15.50;99.90;;;;;;6338719;22;20013;-82
2021/07/02 04:17:27;;;;;;;32.28;13.30;;;15.50;99.90;;;;;;6313950;22;20040;-85
2021/07/02 04:19:52;;;;;;;41.42;13.70;;;15.60;99.90;;;;;;6322353;22;20015;-84
2021/07/02 04:22:19;;;;;;;28.58;12.40;;;15.60;99.90;;;;;;6311281;22;20094;-84
2021/07/02 04:24:45;;;;;;;27.00;12.95;;;15.60;99.90;;;;;;6341803;22;20057;-85
2021/07/02 04:27:14;;;;;;;28.98;13.23;;;15.60;99.90;;;;;;6348239;22;20443;-84
2021/07/02 04:29:40;;;;;;;23.88;12.63;;;15.60;99.90;;;;;;6311606;22;20014;-86
2021/07/02 04:32:07;;;;;;;26.75;13.27;;;15.70;99.90;;;;;;6341901;22;20007;-85
2021/07/02 04:34:32;;;;;;;25.50;12.90;;;15.80;99.90;;;;;;6338335;22;20080;-85
2021/07/02 04:36:58;;;;;;;26.55;12.70;;;15.80;99.90;;;;;;6320986;22;20007;-84
2021/07/02 04:39:26;;;;;;;29.80;12.45;;;16.00;99.90;;;;;;6310357;22;20011;-83
2021/07/02 04:41:52;;;;;;;28.33;12.88;;;15.90;99.90;;;;;;6320766;22;20024;-86
2021/07/02 04:44:19;;;;;;;33.25;12.55;;;15.90;99.90;;;;;;6321268;22;20339;-84
2021/07/02 04:46:45;;;;;;;29.83;13.43;;;15.90;99.90;;;;;;6316153;22;20060;-84
2021/07/02 04:49:10;;;;;;;32.13;13.55;;;16.00;99.90;;;;;;6320905;22;20448;-84
2021/07/02 04:51:37;;;;;;;26.55;12.68;;;15.90;99.90;;;;;;6284505;22;20042;-85
2021/07/02 04:54:03;;;;;;;29.58;12.80;;;16.00;99.90;;;;;;6283485;22;20705;-84
2021/07/02 04:56:29;;;;;;;29.00;12.18;;;16.00;99.90;;;;;;6310168;22;20081;-84
2021/07/02 04:58:55;;;;;;;26.10;13.02;;;16.00;99.90;;;;;;6320246;22;20085;-86
2021/07/02 05:01:22;;;;;;;32.25;12.38;;;16.00;99.90;;;;;;6317221;22;20307;-84
2021/07/02 05:03:48;;;;;;;26.85;12.25;;;16.00;99.90;;;;;;6309764;22;20010;-83
2021/07/02 05:06:15;;;;;;;28.17;12.73;;;15.90;99.90;;;;;;6336990;22;20037;-85
2021/07/02 05:08:41;;;;;;;26.63;13.02;;;16.00;99.90;;;;;;6309543;22;20011;-85
2021/07/02 05:11:09;;;;;;;28.80;12.68;;;16.00;99.90;;;;;;6284322;22;20075;-85
2021/07/02 05:13:41;;;;;;;28.65;13.00;;;16.00;99.90;;;;;;6319850;22;20015;-86
2021/07/02 05:16:08;;;;;;;29.30;12.48;;;16.00;99.90;;;;;;6336852;22;20007;-84
2021/07/02 05:18:34;;;;;;;34.85;12.60;;;16.00;99.90;;;;;;6284026;22;20279;-86
2021/07/02 05:21:00;;;;;;;28.60;11.77;;;16.00;99.90;;;;;;6309784;22;20097;-85
2021/07/02 05:23:27;;;;;;;25.48;12.07;;;16.10;99.90;;;;;;6283517;22;20027;-83
2021/07/02 05:25:52;;;;;;;28.52;11.93;;;16.00;99.90;;;;;;6310250;22;20014;-85
2021/07/02 05:28:18;;;;;;;25.85;12.73;;;16.10;99.90;;;;;;6309959;22;20022;-84
2021/07/02 05:30:44;;;;;;;27.02;12.63;;;16.10;99.90;;;;;;6284931;22;20007;-84
2021/07/02 05:33:10;;;;;;;26.50;12.63;;;16.10;99.90;;;;;;6310312;22;20501;-81
2021/07/02 05:35:35;;;;;;;26.58;12.70;;;16.20;99.90;;;;;;6320742;22;20049;-81
2021/07/02 05:38:01;;;;;;;30.90;13.35;;;16.30;99.90;;;;;;6309883;22;20046;-81
2021/07/02 05:40:30;;;;;;;29.13;12.80;;;16.30;99.90;;;;;;6310122;22;20107;-83
2021/07/02 05:42:59;;;;;;;29.73;12.93;;;16.40;99.90;;;;;;6348555;22;20034;-83
2021/07/02 05:45:25;;;;;;;25.42;12.77;;;16.30;99.90;;;;;;6310790;22;20015;-85
2021/07/02 05:47:58;;;;;;;26.63;13.38;;;16.30;99.90;;;;;;6309637;22;20061;-84
2021/07/02 05:50:24;;;;;;;27.40;13.90;;;16.40;99.90;;;;;;6310786;22;20013;-84
2021/07/02 05:52:52;;;;;;;25.95;12.90;;;16.40;99.90;;;;;;6319590;22;20101;-84
2021/07/02 05:55:18;;;;;;;27.90;13.55;;;16.60;99.90;;;;;;6309531;22;20015;-84
2021/07/02 05:57:44;;;;;;;29.25;13.70;;;16.70;99.90;;;;;;6347384;22;20069;-83
2021/07/02 06:00:11;;;;;;;26.52;13.65;;;16.90;99.90;;;;;;6320113;22;20018;-85
2021/07/02 06:02:37;;;;;;;29.02;14.27;;;16.90;99.90;;;;;;6309481;22;20097;-85
2021/07/02 06:05:04;;;;;;;27.50;14.40;;;17.00;99.90;;;;;;6337468;22;20060;-84
2021/07/02 06:07:46;;;;;;;26.80;13.65;;;17.00;99.90;;;;;;6309033;22;20030;-83
2021/07/02 06:10:13;;;;;;;27.05;14.00;;;16.90;99.90;;;;;;6319451;22;20053;-82
2021/07/02 06:12:39;;;;;;;24.60;13.88;;;16.90;99.90;;;;;;6348522;22;20100;-80
2021/07/02 06:15:05;;;;;;;33.70;14.85;;;16.80;99.90;;;;;;6349431;22;20434;-81
2021/07/02 06:17:32;;;;;;;28.73;14.38;;;16.80;99.90;;;;;;6337473;22;20017;-81
2021/07/02 06:19:58;;;;;;;26.48;14.40;;;16.80;99.90;;;;;;6309525;22;20021;-84
2021/07/02 06:22:25;;;;;;;31.45;14.15;;;16.80;99.90;;;;;;6309212;22;20018;-84
2021/07/02 06:24:50;;;;;;;27.65;14.00;;;16.90;99.90;;;;;;6339460;22;20079;-82
2021/07/02 06:27:16;;;;;;;25.15;14.02;;;16.80;99.90;;;;;;6347008;22;20426;-82
2021/07/02 06:29:42;;;;;;;25.15;13.85;;;16.80;99.90;;;;;;6319562;22;20019;-83
2021/07/02 06:32:26;;;;;;;29.73;13.95;;;16.80;99.90;;;;;;6320346;22;20011;-84
2021/07/02 06:34:52;;;;;;;24.77;14.30;;;16.80;99.90;;;;;;6283421;22;20908;-85
2021/07/02 06:37:18;;;;;;;27.23;14.73;;;16.80;99.90;;;;;;6346542;22;20237;-87
2021/07/02 06:39:51;;;;;;;31.55;15.43;;;16.70;99.90;;;;;;6310777;22;20176;-86
2021/07/02 06:42:16;;;;;;;27.40;14.68;;;16.80;99.90;;;;;;6336753;22;20402;-85
2021/07/02 06:44:42;;;;;;;30.58;15.48;;;16.80;99.90;;;;;;6309067;22;20391;-84
2021/07/02 06:47:09;;;;;;;27.70;14.75;;;16.80;99.90;;;;;;6309100;22;20093;-84
2021/07/02 06:49:38;;;;;;;27.98;14.70;;;16.80;99.90;;;;;;6309135;22;20541;-84
2021/07/02 06:52:07;;;;;;;23.42;14.68;;;17.00;99.90;;;;;;6283684;22;20034;-83
2021/07/02 06:54:52;;;;;;;25.55;14.73;;;17.00;99.90;;;;;;6293331;22;20019;-82
2021/07/02 06:57:18;;;;;;;28.88;15.20;;;17.10;99.90;;;;;;6320555;22;20029;-80
2021/07/02 06:59:44;;;;;;;29.83;15.48;;;17.10;99.90;;;;;;6282711;22;20539;-81
2021/07/02 07:02:12;;;;;;;25.48;14.80;;;17.10;99.90;;;;;;6309415;22;20022;-85
2021/07/02 07:04:41;;;;;;;31.50;15.15;;;17.20;99.90;;;;;;6311518;22;20038;-84
2021/07/02 07:07:08;;;;;;;32.20;15.10;;;17.20;99.90;;;;;;6347352;22;20017;-83
2021/07/02 07:09:35;;;;;;;27.63;14.75;;;17.30;99.90;;;;;;6309570;22;20449;-82
2021/07/02 07:12:03;;;;;;;28.85;15.77;;;17.30;99.90;;;;;;6320076;22;20445;-84
2021/07/02 07:14:29;;;;;;;33.47;16.05;;;17.30;99.90;;;;;;6309430;22;20029;-85
2021/07/02 07:16:55;;;;;;;31.55;15.52;;;17.40;99.90;;;;;;6342919;22;20365;-83
2021/07/02 07:19:26;;;;;;;27.42;15.23;;;17.40;99.90;;;;;;6319867;22;20072;-85
2021/07/02 07:21:51;;;;;;;32.83;15.45;;;17.50;99.90;;;;;;6338061;22;20019;-84
2021/07/02 07:24:17;;;;;;;32.08;15.70;;;17.50;99.90;;;;;;6309046;22;20093;-82
2021/07/02 07:26:43;;;;;;;29.38;15.93;;;17.40;99.90;;;;;;6284252;22;20026;-80
2021/07/02 07:29:09;;;;;;;32.08;15.60;;;17.40;99.90;;;;;;6283924;22;20042;-79
2021/07/02 07:31:37;;;;;;;31.98;15.55;;;17.40;99.90;;;;;;6346639;22;20014;-83
2021/07/02 07:34:04;;;;;;;31.48;15.82;;;17.40;99.90;;;;;;6322570;22;20574;-84
2021/07/02 07:36:34;;;;;;;31.88;15.65;;;17.40;99.90;;;;;;6311104;22;20367;-84
2021/07/02 07:39:10;;;;;;;28.73;15.68;;;17.50;99.90;;;;;;6347821;22;20071;-81
2021/07/02 07:41:37;;;;;;;28.25;13.90;;;17.40;99.90;;;;;;6310930;22;20022;-82
2021/07/02 07:44:03;;;;;;;26.58;14.73;;;17.40;99.90;;;;;;6310858;22;20015;-82
2021/07/02 07:46:29;;;;;;;28.50;15.00;;;17.40;99.90;;;;;;6348049;22;20011;-83
2021/07/02 07:48:56;;;;;;;33.03;15.00;;;17.40;99.90;;;;;;6311131;22;20088;-81
2021/07/02 07:53:56;;;;;;;29.43;14.80;;;17.50;99.90;;;;;;6338669;22;20019;-86
2021/07/02 07:56:22;;;;;;;27.77;14.65;;;17.50;99.90;;;;;;6284393;22;20038;-84
2021/07/02 07:58:47;;;;;;;25.60;14.50;;;17.60;99.90;;;;;;6348338;22;20398;-80
2021/07/02 08:01:13;;;;;;;25.52;14.65;;;17.70;99.90;;;;;;6311916;22;20042;-84
2021/07/02 08:03:39;;;;;;;28.77;14.70;;;17.70;99.90;;;;;;6345692;22;20029;-80
2021/07/02 08:06:04;;;;;;;29.75;14.95;;;17.90;99.90;;;;;;6312348;22;20018;-85
2021/07/02 08:08:30;;;;;;;24.33;14.48;;;18.00;99.90;;;;;;6320968;22;20011;-81
2021/07/02 08:10:59;;;;;;;23.02;14.13;;;17.90;99.90;;;;;;6312274;22;20022;-80
2021/07/02 08:13:28;;;;;;;28.05;13.68;;;18.00;99.90;;;;;;6349623;22;20010;-84
2021/07/02 08:15:56;;;;;;;21.70;13.80;;;18.00;99.90;;;;;;6312441;22;20015;-84
2021/07/02 08:18:22;;;;;;;26.52;14.13;;;18.10;99.90;;;;;;6340238;22;20424;-81
2021/07/02 08:20:48;;;;;;;28.17;14.65;;;18.20;99.90;;;;;;6309864;22;20017;-80
2021/07/02 08:23:14;;;;;;;24.52;14.52;;;18.20;99.90;;;;;;6309470;22;20034;-81
2021/07/02 08:25:40;;;;;;;25.10;14.00;;;18.20;99.90;;;;;;6310928;22;20431;-79
2021/07/02 08:30:53;;;;;;;25.10;13.23;;;18.30;99.90;;;;;;6337685;22;20299;-82
2021/07/02 08:33:19;;;;;;;24.45;14.27;;;18.40;99.90;;;;;;6310570;22;20011;-81
2021/07/02 08:35:49;;;;;;;22.77;13.95;;;18.40;99.90;;;;;;6348916;22;20046;-86
2021/07/02 08:38:18;;;;;;;26.75;14.65;;;18.40;99.90;;;;;;6349100;22;20087;-85
2021/07/02 08:40:47;;;;;;;26.48;13.77;;;18.40;99.90;;;;;;6285193;22;20018;-80
2021/07/02 08:43:13;;;;;;;24.08;12.80;;;18.50;99.90;;;;;;6337860;22;20299;-78
2021/07/02 08:45:39;;;;;;;24.55;13.32;;;18.50;99.90;;;;;;6349130;22;20015;-77
2021/07/02 08:48:07;;;;;;;30.40;14.23;;;18.50;99.90;;;;;;6309293;22;20053;-80
2021/07/02 08:50:35;;;;;;;27.50;14.75;;;18.50;99.90;;;;;;6285184;22;20680;-82
2021/07/02 08:53:01;;;;;;;19.45;11.93;;;18.60;99.90;;;;;;6320488;22;20014;-81
2021/07/02 08:55:27;;;;;;;32.83;14.10;;;18.50;99.90;;;;;;6309406;22;20086;-79
2021/07/02 08:57:53;;;;;;;24.17;13.80;;;18.60;99.90;;;;;;6338044;22;20084;-79
2021/07/02 09:00:20;;;;;;;25.80;13.57;;;18.70;99.90;;;;;;6347731;22;20010;-79
2021/07/02 09:02:46;;;;;;;21.25;12.70;;;18.90;99.90;;;;;;6314345;22;20014;-79
2021/07/02 09:05:32;;;;;;;24.27;13.27;;;18.80;99.90;;;;;;6309968;22;20095;-80
2021/07/02 09:07:58;;;;;;;22.83;12.70;;;18.80;99.90;;;;;;6309734;22;20018;-80
2021/07/02 09:10:35;;;;;;;26.35;13.43;;;18.90;99.90;;;;;;6309722;22;20101;-79
2021/07/02 09:13:02;;;;;;;22.63;12.73;;;18.90;99.90;;;;;;6348144;22;20439;-82
2021/07/02 09:15:28;;;;;;;21.55;12.60;;;18.90;99.90;;;;;;6349224;22;20011;-81
2021/07/02 09:17:58;;;;;;;19.35;11.90;;;19.10;99.90;;;;;;6314007;22;20011;-80
2021/07/02 09:20:39;;;;;;;16.00;10.07;;;19.20;99.90;;;;;;6309884;22;20094;-80
2021/07/02 09:23:15;;;;;;;17.45;11.00;;;19.30;99.90;;;;;;6348640;22;20177;-81
2021/07/02 09:25:46;;;;;;;21.13;12.15;;;19.40;99.90;;;;;;6338763;22;20022;-81
2021/07/02 09:28:15;;;;;;;19.50;11.13;;;19.50;99.90;;;;;;6310096;22;20015;-80
2021/07/02 09:30:45;;;;;;;20.92;11.57;;;19.50;99.90;;;;;;6321284;22;20041;-81
2021/07/02 09:33:20;;;;;;;18.90;10.80;;;19.50;99.90;;;;;;6307771;22;20068;-80
2021/07/02 09:35:51;;;;;;;24.15;12.27;;;19.60;99.90;;;;;;6337505;22;20011;-82
2021/07/02 09:38:19;;;;;;;19.38;12.05;;;19.80;99.90;;;;;;6308794;22;20033;-83
2021/07/02 09:40:47;;;;;;;19.15;11.68;;;19.80;99.90;;;;;;6284666;22;20017;-82
2021/07/02 09:43:18;;;;;;;23.00;11.73;;;20.00;99.90;;;;;;6309977;22;20082;-81
2021/07/02 09:45:58;;;;;;;22.00;12.15;;;20.00;99.90;;;;;;6310519;22;20015;-79
2021/07/02 09:48:26;;;;;;;18.65;10.10;;;20.10;99.90;;;;;;6309627;22;20011;-81
2021/07/02 09:50:53;;;;;;;27.15;11.32;;;20.30;99.90;;;;;;6337188;22;20026;-78
2021/07/02 09:53:35;;;;;;;31.33;10.75;;;20.50;99.90;;;;;;6281619;22;20018;-80
2021/07/02 09:56:18;;;;;;;20.17;9.73;;;20.90;99.90;;;;;;6284276;22;20023;-80
2021/07/02 09:58:44;;;;;;;17.65;9.90;;;21.00;99.90;;;;;;6310402;22;20011;-80
2021/07/02 10:01:21;;;;;;;21.70;10.48;;;21.10;99.90;;;;;;6321096;22;20018;-80
2021/07/02 10:03:47;;;;;;;14.40;8.75;;;21.00;99.90;;;;;;6310208;22;20025;-81
2021/07/02 10:06:25;;;;;;;18.17;9.57;;;21.20;99.90;;;;;;6310458;22;20007;-79
2021/07/02 10:08:52;;;;;;;12.65;8.07;;;21.30;99.90;;;;;;6308252;22;20019;-81
2021/07/02 10:11:18;;;;;;;16.48;9.85;;;21.40;99.90;;;;;;6348411;22;20068;-79
2021/07/02 10:13:46;;;;;;;13.85;9.05;;;21.60;99.90;;;;;;6309969;22;20458;-79
2021/07/02 10:16:13;;;;;;;13.15;8.32;;;21.60;99.90;;;;;;6310329;22;20014;-79
2021/07/02 10:19:00;;;;;;;15.43;8.85;;;21.70;99.90;;;;;;6339721;22;20049;-80
2021/07/02 10:21:27;;;;;;;14.82;9.48;;;22.10;99.90;;;;;;6347787;22;20081;-79
2021/07/02 10:24:01;;;;;;;17.60;9.95;;;22.00;99.90;;;;;;6306353;22;20612;-80
2021/07/02 10:26:28;;;;;;;13.00;8.02;;;21.80;99.90;;;;;;6347258;22;20423;-81
2021/07/02 10:28:56;;;;;;;14.20;7.88;;;21.90;99.90;;;;;;6283495;22;20062;-80
2021/07/02 10:31:22;;;;;;;14.27;9.02;;;22.00;99.90;;;;;;6284872;22;20457;-78
2021/07/02 10:33:58;;;;;;;17.85;9.75;;;22.20;99.90;;;;;;6338928;22;20011;-78
2021/07/02 10:36:30;;;;;;;12.50;7.68;;;22.30;99.90;;;;;;6310005;22;20106;-79
2021/07/02 10:38:57;;;;;;;12.15;8.50;;;22.40;99.90;;;;;;6310714;22;20015;-82
2021/07/02 10:41:26;;;;;;;17.98;11.00;;;22.40;99.90;;;;;;6348427;22;20015;-81
2021/07/02 10:44:07;;;;;;;17.77;9.25;;;22.50;99.90;;;;;;6309233;22;20011;-81
2021/07/02 10:46:36;;;;;;;18.92;9.18;;;22.50;99.90;;;;;;6310102;22;20019;-81
2021/07/02 10:49:12;;;;;;;14.45;9.32;;;22.50;99.90;;;;;;6283242;22;20017;-81
2021/07/02 10:51:40;;;;;;;17.38;9.98;;;22.60;99.90;;;;;;6282055;22;20041;-81
2021/07/02 10:54:18;;;;;;;19.83;9.98;;;22.60;99.90;;;;;;6337191;22;20034;-81
2021/07/02 10:57:04;;;;;;;14.10;8.95;;;22.20;99.90;;;;;;6309041;22;20018;-81
2021/07/02 10:59:45;;;;;;;17.88;9.52;;;22.30;99.90;;;;;;6347676;22;20086;-82
2021/07/02 11:02:13;;;;;;;16.35;9.52;;;22.30;99.90;;;;;;6346834;22;20094;-82
2021/07/02 11:04:44;;;;;;;16.58;9.07;;;22.20;99.90;;;;;;6337751;22;20123;-82
2021/07/02 11:07:29;;;;;;;14.00;9.82;;;22.30;99.90;;;;;;6309001;22;20449;-78
2021/07/02 11:10:02;;;;;;;13.77;8.98;;;22.30;99.90;;;;;;6308603;22;20427;-78
2021/07/02 11:12:57;;;;;;;15.13;9.38;;;22.30;99.90;;;;;;6347214;22;20029;-78
2021/07/02 11:15:23;;;;;;;15.73;8.82;;;22.30;99.90;;;;;;6336678;22;20439;-77
2021/07/02 11:18:10;;;;;;;14.10;9.20;;;22.20;99.90;;;;;;6336531;22;20030;-78
2021/07/02 11:20:37;;;;;;;12.32;8.27;;;22.30;99.90;;;;;;6336583;22;20006;-77
2021/07/02 11:23:17;;;;;;;14.30;8.52;;;22.40;99.90;;;;;;6346532;22;20098;-79
2021/07/02 11:25:55;;;;;;;19.65;10.10;;;22.40;99.90;;;;;;6336304;22;20458;-78
2021/07/02 11:28:52;;;;;;;15.52;9.52;;;22.60;99.90;;;;;;6308591;22;20088;-80
2021/07/02 11:31:18;;;;;;;13.55;8.73;;;23.20;99.90;;;;;;6179581;23;20021;-79
2021/07/02 11:33:45;;;;;;;16.52;9.43;;;23.50;99.90;;;;;;6181941;23;20048;-79
2021/07/02 11:36:13;;;;;;;13.55;9.07;;;23.90;99.90;;;;;;6181544;23;20089;-79
2021/07/02 11:38:52;;;;;;;13.55;9.00;;;23.80;99.90;;;;;;6154085;23;20017;-80
2021/07/02 11:41:28;;;;;;;14.45;9.35;;;23.60;99.90;;;;;;6187365;23;20520;-80
2021/07/02 11:43:56;;;;;;;12.15;9.02;;;24.00;99.90;;;;;;6165406;23;20057;-76
2021/07/02 11:46:22;;;;;;;13.85;9.23;;;24.20;99.90;;;;;;6166458;23;20088;-78
2021/07/02 11:48:50;;;;;;;13.75;9.00;;;24.50;99.90;;;;;;6180172;23;20021;-78
2021/07/02 11:51:24;;;;;;;11.70;8.32;;;24.70;99.90;;;;;;6190278;23;20013;-79
2021/07/02 11:53:58;;;;;;;14.52;8.43;;;24.80;99.90;;;;;;6187454;23;20020;-79
2021/07/02 11:56:35;;;;;;;;;;;24.60;99.90;;;;;;6190994;23;20558;-79
2021/07/02 11:59:12;;;;;;;12.88;8.65;;;24.50;99.90;;;;;;6180623;23;19912;-79
2021/07/02 12:01:44;;;;;;;13.65;8.35;;;24.50;99.90;;;;;;6181095;23;20020;-79
2021/07/02 12:04:16;;;;;;;17.20;8.20;;;24.60;99.90;;;;;;6154577;23;20021;-78
2021/07/02 12:06:47;;;;;;;15.43;8.52;;;24.20;99.90;;;;;;6170118;22;20017;-78
2021/07/02 12:09:21;;;;;;;16.33;9.27;;;24.20;99.90;;;;;;6318316;22;20446;-79
2021/07/02 12:11:59;;;;;;;14.90;9.07;;;23.70;99.90;;;;;;6306267;22;20094;-80
2021/07/02 12:14:25;;;;;;;14.15;9.90;;;23.40;99.90;;;;;;6319054;22;20038;-79
2021/07/02 12:16:52;;;;;;;14.82;8.63;;;23.00;99.90;;;;;;6310148;22;20064;-79
2021/07/02 12:19:25;;;;;;;15.38;9.90;;;22.90;99.90;;;;;;6340173;22;20018;-77
2021/07/02 12:22:00;;;;;;;17.75;10.27;;;22.80;99.90;;;;;;6321595;22;20434;-79
2021/07/02 12:24:28;;;;;;;17.75;10.27;;;23.00;99.90;;;;;;6338166;22;20033;-78
2021/07/02 12:26:55;;;;;;;15.27;10.27;;;23.40;99.90;;;;;;6321336;22;20011;-78
2021/07/02 12:29:23;;;;;;;14.25;10.07;;;23.40;99.90;;;;;;6348684;22;20007;-77
2021/07/02 12:31:55;;;;;;;18.30;10.20;;;23.20;99.90;;;;;;6320178;22;20006;-77
2021/07/02 12:34:26;;;;;;;17.15;10.20;;;22.90;99.90;;;;;;6311914;22;20015;-78
2021/07/02 12:37:13;;;;;;;16.08;10.88;;;22.80;99.90;;;;;;6348004;22;20017;-76
2021/07/02 12:39:44;;;;;;;16.23;10.75;;;23.20;99.90;;;;;;6311299;22;20011;-79